createdAt,value
2023-05-09T00:00:44.693Z,1020.15
2023-05-09T00:01:44.710Z,1020.10
2023-05-09T00:02:44.807Z,1020.11
2023-05-09T00:03:44.748Z,1020.14
2023-05-09T00:04:44.868Z,1020.13
2023-05-09T00:05:44.816Z,1020.11
2023-05-09T00:06:44.833Z,1020.15
2023-05-09T00:07:44.940Z,1020.12
2023-05-09T00:08:44.925Z,1020.11
2023-05-09T00:09:44.937Z,1020.11
2023-05-09T00:10:44.981Z,1020.16
2023-05-09T00:11:45.016Z,1020.12
2023-05-09T00:12:45.084Z,1020.11
2023-05-09T00:13:45.073Z,1020.17
2023-05-09T00:14:45.118Z,1020.14
2023-05-09T00:15:45.233Z,1020.16
2023-05-09T00:16:45.198Z,1020.10
2023-05-09T00:17:45.205Z,1020.14
2023-05-09T00:18:45.234Z,1020.10
2023-05-09T00:19:45.258Z,1020.12
2023-05-09T00:20:45.329Z,1020.08
2023-05-09T00:21:45.330Z,1020.11
2023-05-09T00:22:45.359Z,1020.11
2023-05-09T00:23:45.390Z,1020.12
2023-05-09T00:24:45.438Z,1020.10
2023-05-09T00:25:45.490Z,1020.12
2023-05-09T00:26:45.498Z,1020.11
2023-05-09T00:27:45.517Z,1020.12
2023-05-09T00:28:45.549Z,1020.14
2023-05-09T00:29:45.587Z,1020.14
2023-05-09T00:30:45.607Z,1020.13
2023-05-09T00:31:45.822Z,1020.15
2023-05-09T00:32:45.700Z,1020.19
2023-05-09T00:33:45.709Z,1020.13
2023-05-09T00:34:45.738Z,1020.13
2023-05-09T00:35:45.769Z,1020.18
2023-05-09T00:36:45.787Z,1020.19
2023-05-09T00:37:45.834Z,1020.13
2023-05-09T00:38:45.861Z,1020.13
2023-05-09T00:39:45.890Z,1020.17
2023-05-09T00:40:45.922Z,1020.21
2023-05-09T00:41:45.961Z,1020.22
2023-05-09T00:42:46.000Z,1020.21
2023-05-09T00:43:46.023Z,1020.19
2023-05-09T00:44:46.049Z,1020.19
2023-05-09T00:45:46.127Z,1020.17
2023-05-09T00:46:46.115Z,1020.16
2023-05-09T00:47:46.330Z,1020.17
2023-05-09T00:48:46.185Z,1020.19
2023-05-09T00:49:46.222Z,1020.16
2023-05-09T00:50:46.248Z,1020.12
2023-05-09T00:51:46.261Z,1020.10
2023-05-09T00:52:46.304Z,1020.06
2023-05-09T00:53:46.334Z,1020.08
2023-05-09T00:54:46.372Z,1020.06
2023-05-09T00:55:46.390Z,1020.02
2023-05-09T00:56:46.416Z,1020.04
2023-05-09T00:57:46.456Z,1020.01
2023-05-09T00:58:46.489Z,1020.02
2023-05-09T00:59:46.536Z,1020.04
2023-05-09T01:00:46.538Z,1019.98
2023-05-09T01:01:46.629Z,1020.00
2023-05-09T01:02:46.750Z,1019.97
2023-05-09T01:03:46.983Z,1019.98
2023-05-09T01:04:46.676Z,1019.93
2023-05-09T01:05:46.703Z,1019.96
2023-05-09T01:06:46.766Z,1019.97
2023-05-09T01:07:46.772Z,1019.96
2023-05-09T01:08:46.803Z,1019.92
2023-05-09T01:09:46.842Z,1019.90
2023-05-09T01:10:46.871Z,1019.89
2023-05-09T01:11:46.906Z,1019.87
2023-05-09T01:12:46.966Z,1019.84
2023-05-09T01:13:46.981Z,1019.82
2023-05-09T01:14:46.999Z,1019.82
2023-05-09T01:15:47.079Z,1019.82
2023-05-09T01:16:47.068Z,1019.80
2023-05-09T01:17:47.147Z,1019.78
2023-05-09T01:18:47.111Z,1019.76
2023-05-09T01:19:47.240Z,1019.82
2023-05-09T01:20:47.178Z,1019.80
2023-05-09T01:21:47.212Z,1019.78
2023-05-09T01:22:47.241Z,1019.79
2023-05-09T01:23:47.277Z,1019.77
2023-05-09T01:24:47.312Z,1019.80
2023-05-09T01:25:47.326Z,1019.84
2023-05-09T01:26:47.371Z,1019.81
2023-05-09T01:27:47.401Z,1019.81
2023-05-09T01:28:47.436Z,1019.84
2023-05-09T01:29:47.479Z,1019.84
2023-05-09T01:30:47.496Z,1019.83
2023-05-09T01:31:47.601Z,1019.79
2023-05-09T01:32:47.607Z,1019.81
2023-05-09T01:33:47.589Z,1019.77
2023-05-09T01:34:47.617Z,1019.76
2023-05-09T01:35:47.749Z,1019.75
2023-05-09T01:36:47.689Z,1019.69
2023-05-09T01:37:47.721Z,1019.72
2023-05-09T01:38:47.761Z,1019.73
2023-05-09T01:39:47.787Z,1019.71
2023-05-09T01:40:47.813Z,1019.70
2023-05-09T01:41:47.845Z,1019.73
2023-05-09T01:42:47.860Z,1019.69
2023-05-09T01:43:47.951Z,1019.66
2023-05-09T01:44:47.920Z,1019.66
2023-05-09T01:45:47.969Z,1019.66
2023-05-09T01:46:48.013Z,1019.64
2023-05-09T01:47:48.103Z,1019.66
2023-05-09T01:48:48.062Z,1019.69
2023-05-09T01:49:48.082Z,1019.65
2023-05-09T01:50:48.116Z,1019.58
2023-05-09T01:51:48.246Z,1019.62
2023-05-09T01:52:48.186Z,1019.61
2023-05-09T01:53:48.221Z,1019.66
2023-05-09T01:54:48.251Z,1019.62
2023-05-09T01:55:48.280Z,1019.60
2023-05-09T01:56:48.317Z,1019.68
2023-05-09T01:57:48.337Z,1019.69
2023-05-09T01:58:48.424Z,1019.64
2023-05-09T01:59:48.392Z,1019.64
2023-05-09T02:00:48.479Z,1019.64
2023-05-09T02:01:48.511Z,1019.64
2023-05-09T02:02:48.537Z,1019.67
2023-05-09T02:03:48.525Z,1019.65
2023-05-09T02:04:48.568Z,1019.64
2023-05-09T02:05:48.583Z,1019.65
2023-05-09T02:06:48.622Z,1019.69
2023-05-09T02:07:48.768Z,1019.61
2023-05-09T02:08:48.711Z,1019.70
2023-05-09T02:09:48.711Z,1019.71
2023-05-09T02:10:48.773Z,1019.65
2023-05-09T02:11:48.776Z,1019.63
2023-05-09T02:12:48.930Z,1019.63
2023-05-09T02:13:48.831Z,1019.65
2023-05-09T02:14:48.864Z,1019.59
2023-05-09T02:15:48.918Z,1019.65
2023-05-09T02:16:49.115Z,1019.63
2023-05-09T02:17:48.971Z,1019.64
2023-05-09T02:18:48.987Z,1019.67
2023-05-09T02:19:49.026Z,1019.65
2023-05-09T02:20:49.090Z,1019.67
2023-05-09T02:21:49.066Z,1019.67
2023-05-09T02:22:49.158Z,1019.69
2023-05-09T02:23:49.227Z,1019.64
2023-05-09T02:24:49.197Z,1019.68
2023-05-09T02:25:49.187Z,1019.69
2023-05-09T02:26:49.235Z,1019.68
2023-05-09T02:27:49.271Z,1019.65
2023-05-09T02:28:49.300Z,1019.67
2023-05-09T02:29:49.338Z,1019.65
2023-05-09T02:30:49.362Z,1019.64
2023-05-09T02:31:49.431Z,1019.62
2023-05-09T02:32:49.464Z,1019.63
2023-05-09T02:33:49.452Z,1019.65
2023-05-09T02:34:49.479Z,1019.66
2023-05-09T02:35:49.560Z,1019.71
2023-05-09T02:36:49.571Z,1019.74
2023-05-09T02:37:49.572Z,1019.70
2023-05-09T02:38:49.608Z,1019.68
2023-05-09T02:39:49.745Z,1019.67
2023-05-09T02:40:50.990Z,1019.73
2023-05-09T02:41:49.703Z,1019.72
2023-05-09T02:42:49.726Z,1019.68
2023-05-09T02:43:49.758Z,1019.72
2023-05-09T02:44:49.789Z,1019.67
2023-05-09T02:45:49.841Z,1019.72
2023-05-09T02:46:49.851Z,1019.73
2023-05-09T02:47:49.919Z,1019.68
2023-05-09T02:48:49.913Z,1019.72
2023-05-09T02:49:49.970Z,1019.77
2023-05-09T02:50:49.981Z,1019.67
2023-05-09T02:51:49.998Z,1019.67
2023-05-09T02:52:50.034Z,1019.65
2023-05-09T02:53:50.084Z,1019.70
2023-05-09T02:54:50.113Z,1019.70
2023-05-09T02:55:50.220Z,1019.63
2023-05-09T02:56:50.154Z,1019.69
2023-05-09T02:57:56.193Z,1019.60
2023-05-09T02:58:50.216Z,1019.64
2023-05-09T02:59:50.234Z,1019.63
2023-05-09T03:00:50.263Z,1019.65
2023-05-09T03:01:50.415Z,1019.67
2023-05-09T03:02:50.410Z,1019.63
2023-05-09T03:03:50.415Z,1019.64
2023-05-09T03:04:50.475Z,1019.63
2023-05-09T03:05:50.426Z,1019.68
2023-05-09T03:06:50.470Z,1019.64
2023-05-09T03:07:50.507Z,1019.65
2023-05-09T03:08:50.528Z,1019.62
2023-05-09T03:09:50.547Z,1019.62
2023-05-09T03:10:50.583Z,1019.58
2023-05-09T03:11:50.723Z,1019.61
2023-05-09T03:12:50.644Z,1019.62
2023-05-09T03:13:50.673Z,1019.55
2023-05-09T03:14:50.718Z,1019.56
2023-05-09T03:15:50.746Z,1019.57
2023-05-09T03:16:50.798Z,1019.59
2023-05-09T03:17:50.824Z,1019.60
2023-05-09T03:18:50.828Z,1019.50
2023-05-09T03:19:50.873Z,1019.49
2023-05-09T03:20:50.875Z,1019.55
2023-05-09T03:21:50.919Z,1019.53
2023-05-09T03:22:50.933Z,1019.54
2023-05-09T03:23:50.964Z,1019.56
2023-05-09T03:24:51.031Z,1019.54
2023-05-09T03:25:51.047Z,1019.56
2023-05-09T03:26:51.069Z,1019.55
2023-05-09T03:27:51.200Z,1019.49
2023-05-09T03:28:51.140Z,1019.49
2023-05-09T03:29:51.240Z,1019.53
2023-05-09T03:30:51.189Z,1019.46
2023-05-09T03:31:51.253Z,1019.50
2023-05-09T03:32:51.329Z,1019.48
2023-05-09T03:33:51.284Z,1019.49
2023-05-09T03:34:51.317Z,1019.47
2023-05-09T03:35:51.341Z,1019.48
2023-05-09T03:36:51.376Z,1019.45
2023-05-09T03:37:51.426Z,1019.43
2023-05-09T03:38:51.449Z,1019.45
2023-05-09T03:39:51.456Z,1019.45
2023-05-09T03:40:51.510Z,1019.47
2023-05-09T03:41:51.531Z,1019.43
2023-05-09T03:42:51.569Z,1019.47
2023-05-09T03:43:51.673Z,1019.45
2023-05-09T03:44:51.638Z,1019.39
2023-05-09T03:45:51.663Z,1019.47
2023-05-09T03:46:51.737Z,1019.44
2023-05-09T03:47:51.761Z,1019.44
2023-05-09T03:48:51.765Z,1019.48
2023-05-09T03:49:51.784Z,1019.45
2023-05-09T03:50:51.801Z,1019.45
2023-05-09T03:51:51.857Z,1019.44
2023-05-09T03:52:51.868Z,1019.43
2023-05-09T03:53:51.910Z,1019.41
2023-05-09T03:54:51.929Z,1019.38
2023-05-09T03:55:51.972Z,1019.40
2023-05-09T03:56:51.993Z,1019.43
2023-05-09T03:57:52.044Z,1019.39
2023-05-09T03:58:52.047Z,1019.36
2023-05-09T03:59:52.175Z,1019.32
2023-05-09T04:00:52.126Z,1019.32
2023-05-09T04:01:52.139Z,1019.37
2023-05-09T04:02:52.249Z,1019.35
2023-05-09T04:03:52.247Z,1019.37
2023-05-09T04:04:52.237Z,1019.37
2023-05-09T04:05:52.268Z,1019.36
2023-05-09T04:06:52.305Z,1019.33
2023-05-09T04:07:52.331Z,1019.37
2023-05-09T04:08:52.369Z,1019.37
2023-05-09T04:09:52.392Z,1019.35
2023-05-09T04:10:52.412Z,1019.37
2023-05-09T04:11:52.457Z,1019.35
2023-05-09T04:12:52.508Z,1019.32
2023-05-09T04:13:52.546Z,1019.35
2023-05-09T04:14:52.543Z,1019.36
2023-05-09T04:15:52.678Z,1019.38
2023-05-09T04:16:52.644Z,1019.33
2023-05-09T04:17:52.685Z,1019.35
2023-05-09T04:18:52.688Z,1019.36
2023-05-09T04:19:52.700Z,1019.38
2023-05-09T04:20:52.732Z,1019.38
2023-05-09T04:21:52.766Z,1019.38
2023-05-09T04:22:52.788Z,1019.38
2023-05-09T04:23:52.823Z,1019.37
2023-05-09T04:24:52.850Z,1019.37
2023-05-09T04:25:52.891Z,1019.38
2023-05-09T04:26:52.923Z,1019.35
2023-05-09T04:29:07.387Z,1019.37
2023-05-09T04:30:07.418Z,1019.38
2023-05-09T04:32:11.641Z,1019.43
2023-05-09T04:33:11.554Z,1019.41
2023-05-09T04:35:16.840Z,1019.39
2023-05-09T04:36:15.605Z,1019.34
2023-05-09T04:38:19.672Z,1019.40
2023-05-09T04:39:19.703Z,1019.33
2023-05-09T04:41:12.860Z,1019.32
2023-05-09T04:42:12.880Z,1019.38
2023-05-09T04:44:18.451Z,1019.37
2023-05-09T04:45:18.502Z,1019.41
2023-05-09T04:46:18.518Z,1019.39
2023-05-09T04:47:18.620Z,1019.33
2023-05-09T04:48:18.566Z,1019.38
2023-05-09T04:49:18.590Z,1019.38
2023-05-09T04:50:18.622Z,1019.39
2023-05-09T04:51:18.651Z,1019.36
2023-05-09T04:52:18.684Z,1019.37
2023-05-09T04:53:18.707Z,1019.36
2023-05-09T04:54:18.744Z,1019.32
2023-05-09T04:55:18.777Z,1019.39
2023-05-09T04:56:18.805Z,1019.41
2023-05-09T04:57:19.211Z,1019.34
2023-05-09T04:58:18.859Z,1019.33
2023-05-09T04:59:18.895Z,1019.35
2023-05-09T05:00:18.929Z,1019.28
2023-05-09T05:01:18.986Z,1019.35
2023-05-09T05:02:18.992Z,1019.32
2023-05-09T05:03:19.114Z,1019.31
2023-05-09T05:04:19.072Z,1019.28
2023-05-09T05:05:24.711Z,1019.26
2023-05-09T05:06:19.116Z,1019.31
2023-05-09T05:07:19.150Z,1019.36
2023-05-09T05:08:19.161Z,1019.30
2023-05-09T05:09:19.202Z,1019.28
2023-05-09T05:10:19.242Z,1019.28
2023-05-09T05:11:19.266Z,1019.28
2023-05-09T05:12:19.303Z,1019.32
2023-05-09T05:13:19.377Z,1019.30
2023-05-09T05:14:19.360Z,1019.31
2023-05-09T05:15:19.482Z,1019.33
2023-05-09T05:16:19.443Z,1019.26
2023-05-09T05:17:19.448Z,1019.29
2023-05-09T05:18:19.488Z,1019.27
2023-05-09T05:19:19.613Z,1019.26
2023-05-09T05:20:19.537Z,1019.22
2023-05-09T05:21:19.577Z,1019.21
2023-05-09T05:22:19.605Z,1019.20
2023-05-09T05:23:19.632Z,1019.19
2023-05-09T05:24:19.670Z,1019.20
2023-05-09T05:25:19.696Z,1019.25
2023-05-09T05:26:19.725Z,1019.20
2023-05-09T05:27:19.893Z,1019.20
2023-05-09T05:28:19.782Z,1019.19
2023-05-09T05:29:19.816Z,1019.21
2023-05-09T05:30:19.849Z,1019.19
2023-05-09T05:31:19.899Z,1019.18
2023-05-09T05:32:19.910Z,1019.20
2023-05-09T05:33:19.940Z,1019.21
2023-05-09T05:34:19.964Z,1019.15
2023-05-09T05:35:20.095Z,1019.16
2023-05-09T05:36:20.030Z,1019.17
2023-05-09T05:37:20.059Z,1019.12
2023-05-09T05:38:20.093Z,1019.14
2023-05-09T05:39:20.136Z,1019.12
2023-05-09T05:40:20.162Z,1019.13
2023-05-09T05:41:20.169Z,1019.17
2023-05-09T05:42:20.220Z,1019.13
2023-05-09T05:43:20.245Z,1019.16
2023-05-09T05:44:20.286Z,1019.07
2023-05-09T05:45:20.307Z,1019.11
2023-05-09T05:46:20.406Z,1019.16
2023-05-09T05:47:20.384Z,1019.12
2023-05-09T05:48:20.386Z,1019.06
2023-05-09T05:49:20.437Z,1019.10
2023-05-09T05:50:20.467Z,1019.04
2023-05-09T05:51:20.581Z,1019.08
2023-05-09T05:52:20.519Z,1019.09
2023-05-09T05:53:20.551Z,1019.07
2023-05-09T05:54:20.580Z,1019.00
2023-05-09T05:55:20.625Z,1018.96
2023-05-09T05:56:20.648Z,1018.90
2023-05-09T05:57:20.669Z,1018.91
2023-05-09T05:58:20.719Z,1018.88
2023-05-09T05:59:20.738Z,1018.90
2023-05-09T06:00:20.800Z,1018.95
2023-05-09T06:01:20.800Z,1018.92
2023-05-09T06:02:20.895Z,1018.88
2023-05-09T06:03:20.946Z,1018.80
2023-05-09T06:04:20.927Z,1018.89
2023-05-09T06:05:20.949Z,1018.86
2023-05-09T06:06:20.963Z,1018.86
2023-05-09T06:07:21.120Z,1018.84
2023-05-09T06:08:21.023Z,1018.84
2023-05-09T06:09:21.045Z,1018.77
2023-05-09T06:10:21.079Z,1018.80
2023-05-09T06:11:21.120Z,1018.81
2023-05-09T06:12:21.139Z,1018.72
2023-05-09T06:13:21.265Z,1018.78
2023-05-09T06:14:21.207Z,1018.75
2023-05-09T06:15:21.235Z,1018.77
2023-05-09T06:16:21.446Z,1018.77
2023-05-09T06:17:21.302Z,1018.70
2023-05-09T06:18:21.314Z,1018.78
2023-05-09T06:19:21.461Z,1018.72
2023-05-09T06:20:21.387Z,1018.79
2023-05-09T06:21:21.435Z,1018.70
2023-05-09T06:22:21.455Z,1018.67
2023-05-09T06:23:21.576Z,1018.68
2023-05-09T06:24:34.470Z,1018.67
2023-05-09T06:25:21.565Z,1018.63
2023-05-09T06:26:21.605Z,1018.67
2023-05-09T06:27:21.608Z,1018.62
2023-05-09T06:28:21.658Z,1018.61
2023-05-09T06:29:21.673Z,1018.56
2023-05-09T06:30:26.457Z,1018.55
2023-05-09T06:31:22.498Z,1018.56
2023-05-09T06:32:21.768Z,1018.46
2023-05-09T06:33:21.781Z,1018.53
2023-05-09T06:34:21.843Z,1018.47
2023-05-09T06:35:21.968Z,1018.49
2023-05-09T06:36:21.890Z,1018.53
2023-05-09T06:37:21.940Z,1018.52
2023-05-09T06:38:21.959Z,1018.49
2023-05-09T06:39:22.087Z,1018.51
2023-05-09T06:40:22.024Z,1018.39
2023-05-09T06:41:22.072Z,1018.45
2023-05-09T06:42:22.078Z,1018.43
2023-05-09T06:43:22.117Z,1018.35
2023-05-09T06:44:22.137Z,1018.36
2023-05-09T06:45:22.268Z,1018.35
2023-05-09T06:46:22.231Z,1018.31
2023-05-09T06:47:22.227Z,1018.29
2023-05-09T06:48:22.260Z,1018.29
2023-05-09T06:49:22.307Z,1018.31
2023-05-09T06:50:22.332Z,1018.26
2023-05-09T06:51:22.372Z,1018.31
2023-05-09T06:52:22.400Z,1018.27
2023-05-09T06:53:22.437Z,1018.21
2023-05-09T06:54:22.457Z,1018.29
2023-05-09T06:55:22.585Z,1018.31
2023-05-09T06:56:22.532Z,1018.27
2023-05-09T06:57:22.565Z,1018.28
2023-05-09T06:58:22.621Z,1018.22
2023-05-09T06:59:22.616Z,1018.27
2023-05-09T07:00:22.650Z,1018.23
2023-05-09T07:01:22.733Z,1018.17
2023-05-09T07:02:22.746Z,1018.21
2023-05-09T07:03:22.749Z,1018.24
2023-05-09T07:04:22.783Z,1018.21
2023-05-09T07:05:22.929Z,1018.14
2023-05-09T07:06:22.839Z,1018.16
2023-05-09T07:07:22.883Z,1018.08
2023-05-09T07:08:22.913Z,1018.04
2023-05-09T07:09:22.943Z,1018.07
2023-05-09T07:10:22.962Z,1018.05
2023-05-09T07:11:23.134Z,1018.10
2023-05-09T07:12:23.026Z,1018.05
2023-05-09T07:13:23.195Z,1018.00
2023-05-09T07:14:23.126Z,1017.97
2023-05-09T07:15:39.832Z,1017.97
2023-05-09T07:16:23.244Z,1017.98
2023-05-09T07:17:24.183Z,1017.92
2023-05-09T07:18:23.219Z,1017.88
2023-05-09T07:19:23.271Z,1017.92
2023-05-09T07:20:23.298Z,1017.88
2023-05-09T07:21:23.334Z,1017.89
2023-05-09T07:22:23.362Z,1017.89
2023-05-09T07:23:23.395Z,1017.94
2023-05-09T07:24:23.416Z,1017.83
2023-05-09T07:25:23.449Z,1017.84
2023-05-09T07:26:23.489Z,1017.76
2023-05-09T07:27:23.629Z,1017.80
2023-05-09T07:28:23.562Z,1017.82
2023-05-09T07:29:23.592Z,1017.84
2023-05-09T07:30:23.630Z,1017.85
2023-05-09T07:31:23.682Z,1017.90
2023-05-09T07:32:23.804Z,1017.74
2023-05-09T07:33:23.728Z,1017.70
2023-05-09T07:34:23.752Z,1017.67
2023-05-09T07:35:23.797Z,1017.69
2023-05-09T07:36:23.824Z,1017.74
2023-05-09T07:37:23.846Z,1017.70
2023-05-09T07:38:23.880Z,1017.79
2023-05-09T07:39:23.917Z,1017.73
2023-05-09T07:40:23.950Z,1017.71
2023-05-09T07:41:23.986Z,1017.67
2023-05-09T07:42:24.019Z,1017.68
2023-05-09T07:43:24.150Z,1017.67
2023-05-09T07:44:24.085Z,1017.66
2023-05-09T07:45:24.251Z,1017.66
2023-05-09T07:46:24.194Z,1017.63
2023-05-09T07:47:24.221Z,1017.73
2023-05-09T07:48:24.226Z,1017.63
2023-05-09T07:49:24.254Z,1017.61
2023-05-09T07:50:24.276Z,1017.61
2023-05-09T07:51:24.307Z,1017.62
2023-05-09T07:52:24.355Z,1017.57
2023-05-09T07:53:24.385Z,1017.55
2023-05-09T07:54:24.417Z,1017.53
2023-05-09T07:55:24.473Z,1017.51
2023-05-09T07:56:24.481Z,1017.52
2023-05-09T07:57:24.521Z,1017.50
2023-05-09T07:58:24.542Z,1017.51
2023-05-09T07:59:24.598Z,1017.48
2023-05-09T08:00:24.616Z,1017.50
2023-05-09T08:01:24.661Z,1017.55
2023-05-09T08:02:24.784Z,1017.52
2023-05-09T08:03:24.816Z,1017.49
2023-05-09T08:04:24.806Z,1017.40
2023-05-09T08:05:24.792Z,1017.45
2023-05-09T08:06:24.818Z,1017.46
2023-05-09T08:07:24.861Z,1017.45
2023-05-09T08:08:24.890Z,1017.41
2023-05-09T08:09:24.910Z,1017.37
2023-05-09T08:10:24.960Z,1017.34
2023-05-09T08:11:25.000Z,1017.35
2023-05-09T08:12:25.024Z,1017.40
2023-05-09T08:13:25.144Z,1017.33
2023-05-09T08:14:25.090Z,1017.36
2023-05-09T08:15:25.219Z,1017.36
2023-05-09T08:16:25.205Z,1017.29
2023-05-09T08:17:25.233Z,1017.27
2023-05-09T08:18:25.223Z,1017.27
2023-05-09T08:19:25.266Z,1017.24
2023-05-09T08:20:25.309Z,1017.30
2023-05-09T08:21:25.344Z,1017.30
2023-05-09T08:22:25.366Z,1017.29
2023-05-09T08:23:25.396Z,1017.26
2023-05-09T08:24:25.444Z,1017.26
2023-05-09T08:25:25.477Z,1017.28
2023-05-09T08:26:25.517Z,1017.17
2023-05-09T08:27:25.591Z,1017.22
2023-05-09T08:28:25.588Z,1017.24
2023-05-09T08:29:25.616Z,1017.20
2023-05-09T08:30:25.646Z,1017.18
2023-05-09T08:31:25.835Z,1017.21
2023-05-09T08:32:25.719Z,1017.22
2023-05-09T08:33:25.755Z,1017.25
2023-05-09T08:34:25.782Z,1017.22
2023-05-09T08:35:25.823Z,1017.11
2023-05-09T08:36:25.861Z,1017.11
2023-05-09T08:37:25.879Z,1017.17
2023-05-09T08:38:25.913Z,1017.16
2023-05-09T08:39:25.968Z,1017.18
2023-05-09T08:40:26.000Z,1017.25
2023-05-09T08:41:26.044Z,1017.20
2023-05-09T08:42:26.649Z,1017.23
2023-05-09T08:43:26.097Z,1017.18
2023-05-09T08:44:26.147Z,1017.11
2023-05-09T08:45:26.174Z,1017.21
2023-05-09T08:46:26.221Z,1017.24
2023-05-09T08:47:26.262Z,1017.21
2023-05-09T08:48:26.268Z,1017.17
2023-05-09T08:49:26.309Z,1017.17
2023-05-09T08:50:26.349Z,1017.22
2023-05-09T08:51:26.382Z,1017.18
2023-05-09T08:52:26.417Z,1017.15
2023-05-09T08:53:26.453Z,1017.25
2023-05-09T08:54:26.485Z,1017.16
2023-05-09T08:55:26.511Z,1017.13
2023-05-09T08:56:26.537Z,1017.13
2023-05-09T08:57:26.577Z,1017.09
2023-05-09T08:58:26.656Z,1017.03
2023-05-09T08:59:26.654Z,1017.09
2023-05-09T09:00:26.688Z,1017.01
2023-05-09T09:01:26.765Z,1017.01
2023-05-09T09:02:26.787Z,1016.95
2023-05-09T09:03:26.907Z,1017.01
2023-05-09T09:04:26.933Z,1016.98
2023-05-09T09:05:40.818Z,1016.98
2023-05-09T09:06:26.895Z,1017.02
2023-05-09T09:07:27.377Z,1016.99
2023-05-09T09:08:26.951Z,1016.98
2023-05-09T09:09:27.000Z,1016.94
2023-05-09T09:10:27.043Z,1016.98
2023-05-09T09:11:27.068Z,1016.93
2023-05-09T09:12:27.106Z,1016.94
2023-05-09T09:13:27.188Z,1016.93
2023-05-09T09:14:27.173Z,1016.96
2023-05-09T09:15:27.201Z,1016.85
2023-05-09T09:16:27.269Z,1016.91
2023-05-09T09:17:27.297Z,1016.88
2023-05-09T09:18:27.317Z,1016.87
2023-05-09T09:19:27.445Z,1016.91
2023-05-09T09:20:27.375Z,1016.87
2023-05-09T09:21:27.429Z,1016.91
2023-05-09T09:22:27.451Z,1016.90
2023-05-09T09:23:27.480Z,1016.84
2023-05-09T09:24:27.534Z,1016.79
2023-05-09T09:25:27.561Z,1016.82
2023-05-09T09:26:27.585Z,1016.79
2023-05-09T09:27:27.625Z,1016.82
2023-05-09T09:28:27.671Z,1016.83
2023-05-09T09:29:27.710Z,1016.85
2023-05-09T09:30:27.774Z,1016.82
2023-05-09T09:31:27.804Z,1016.85
2023-05-09T09:32:27.887Z,1016.72
2023-05-09T09:33:27.843Z,1016.72
2023-05-09T09:34:27.882Z,1016.79
2023-05-09T09:35:28.010Z,1016.77
2023-05-09T09:36:27.951Z,1016.76
2023-05-09T09:37:27.981Z,1016.75
2023-05-09T09:38:28.002Z,1016.69
2023-05-09T09:39:28.056Z,1016.73
2023-05-09T09:40:28.104Z,1016.65
2023-05-09T09:41:28.111Z,1016.64
2023-05-09T09:42:28.161Z,1016.70
2023-05-09T09:43:28.208Z,1016.63
2023-05-09T09:44:28.235Z,1016.58
2023-05-09T09:45:28.272Z,1016.59
2023-05-09T09:46:28.348Z,1016.65
2023-05-09T09:47:28.379Z,1016.57
2023-05-09T09:48:28.377Z,1016.67
2023-05-09T09:49:28.422Z,1016.51
2023-05-09T09:50:28.447Z,1016.46
2023-05-09T09:51:28.576Z,1016.42
2023-05-09T09:52:28.528Z,1016.46
2023-05-09T09:53:28.578Z,1016.47
2023-05-09T09:54:28.599Z,1016.44
2023-05-09T09:55:28.626Z,1016.49
2023-05-09T09:56:28.661Z,1016.38
2023-05-09T09:57:28.705Z,1016.37
2023-05-09T09:58:28.736Z,1016.42
2023-05-09T09:59:28.796Z,1016.41
2023-05-09T10:00:28.827Z,1016.37
2023-05-09T10:01:28.897Z,1016.31
2023-05-09T10:02:28.912Z,1016.41
2023-05-09T10:03:28.937Z,1016.36
2023-05-09T10:04:28.931Z,1016.31
2023-05-09T10:05:29.037Z,1016.32
2023-05-09T10:06:29.066Z,1016.37
2023-05-09T10:07:29.151Z,1016.31
2023-05-09T10:08:29.123Z,1016.24
2023-05-09T10:09:29.139Z,1016.27
2023-05-09T10:10:29.180Z,1016.30
2023-05-09T10:11:29.196Z,1016.30
2023-05-09T10:12:29.240Z,1016.20
2023-05-09T10:13:29.339Z,1016.25
2023-05-09T10:14:29.312Z,1016.27
2023-05-09T10:15:33.466Z,1016.22
2023-05-09T10:16:42.548Z,1016.20
2023-05-09T10:17:29.559Z,1016.26
2023-05-09T10:18:29.795Z,1016.17
2023-05-09T10:19:29.501Z,1016.16
2023-05-09T10:20:29.521Z,1016.10
2023-05-09T10:21:29.561Z,1016.10
2023-05-09T10:22:29.604Z,1016.14
2023-05-09T10:23:29.730Z,1016.11
2023-05-09T10:24:29.680Z,1016.08
2023-05-09T10:25:29.709Z,1015.98
2023-05-09T10:26:29.739Z,1016.07
2023-05-09T10:27:29.797Z,1016.09
2023-05-09T10:28:29.808Z,1016.02
2023-05-09T10:29:29.856Z,1016.03
2023-05-09T10:30:30.305Z,1016.11
2023-05-09T10:31:30.010Z,1016.03
2023-05-09T10:32:29.983Z,1016.09
2023-05-09T10:33:30.025Z,1016.00
2023-05-09T10:34:30.053Z,1015.95
2023-05-09T10:35:30.147Z,1015.98
2023-05-09T10:36:30.099Z,1015.92
2023-05-09T10:37:31.575Z,1015.94
2023-05-09T10:38:30.185Z,1016.03
2023-05-09T10:39:30.255Z,1015.90
2023-05-09T10:40:30.293Z,1015.94
2023-05-09T10:41:30.298Z,1015.85
2023-05-09T10:42:30.336Z,1015.81
2023-05-09T10:43:31.172Z,1015.83
2023-05-09T10:44:30.410Z,1015.89
2023-05-09T10:45:30.452Z,1015.85
2023-05-09T10:46:30.504Z,1015.95
2023-05-09T10:47:30.568Z,1015.89
2023-05-09T10:48:30.561Z,1015.86
2023-05-09T10:49:30.590Z,1015.91
2023-05-09T10:50:30.629Z,1015.83
2023-05-09T10:51:30.663Z,1015.83
2023-05-09T10:52:30.712Z,1015.75
2023-05-09T10:53:30.760Z,1015.74
2023-05-09T10:54:31.174Z,1015.75
2023-05-09T10:55:30.907Z,1015.69
2023-05-09T10:56:30.852Z,1015.75
2023-05-09T10:57:30.881Z,1015.70
2023-05-09T10:58:30.911Z,1015.60
2023-05-09T10:59:30.949Z,1015.72
2023-05-09T11:00:31.005Z,1015.72
2023-05-09T11:01:31.077Z,1015.59
2023-05-09T11:02:31.152Z,1015.63
2023-05-09T11:03:31.215Z,1015.83
2023-05-09T11:04:31.154Z,1015.64
2023-05-09T11:05:31.184Z,1015.65
2023-05-09T11:06:31.228Z,1015.65
2023-05-09T11:07:31.265Z,1015.63
2023-05-09T11:08:31.316Z,1015.55
2023-05-09T11:09:31.335Z,1015.60
2023-05-09T11:10:31.367Z,1015.58
2023-05-09T11:11:31.526Z,1015.47
2023-05-09T11:12:31.446Z,1015.49
2023-05-09T11:13:31.533Z,1015.48
2023-05-09T11:14:31.524Z,1015.42
2023-05-09T11:15:31.557Z,1015.55
2023-05-09T11:16:31.691Z,1015.41
2023-05-09T11:17:31.635Z,1015.42
2023-05-09T11:18:31.666Z,1015.45
2023-05-09T11:19:31.704Z,1015.45
2023-05-09T11:20:31.737Z,1015.43
2023-05-09T11:21:31.782Z,1015.41
2023-05-09T11:22:31.805Z,1015.38
2023-05-09T11:23:31.841Z,1015.33
2023-05-09T11:24:31.877Z,1015.34
2023-05-09T11:25:31.922Z,1015.24
2023-05-09T11:26:31.961Z,1015.19
2023-05-09T11:27:32.138Z,1015.20
2023-05-09T11:28:32.063Z,1015.23
2023-05-09T11:29:32.071Z,1015.25
2023-05-09T11:30:32.108Z,1015.31
2023-05-09T11:31:32.189Z,1015.22
2023-05-09T11:32:32.261Z,1015.15
2023-05-09T11:33:32.260Z,1015.13
2023-05-09T11:34:32.263Z,1015.14
2023-05-09T11:35:32.398Z,1015.08
2023-05-09T11:36:32.347Z,1015.08
2023-05-09T11:37:32.371Z,1014.93
2023-05-09T11:38:32.414Z,1015.07
2023-05-09T11:39:32.445Z,1015.00
2023-05-09T11:40:32.487Z,1014.93
2023-05-09T11:41:32.520Z,1014.99
2023-05-09T11:42:32.566Z,1015.02
2023-05-09T11:43:32.685Z,1014.95
2023-05-09T11:44:32.632Z,1014.92
2023-05-09T11:45:32.676Z,1014.93
2023-05-09T11:46:32.789Z,1014.79
2023-05-09T11:47:32.830Z,1015.03
2023-05-09T11:48:32.842Z,1014.93
2023-05-09T11:49:32.807Z,1014.93
2023-05-09T11:50:32.889Z,1014.94
2023-05-09T11:51:32.878Z,1014.91
2023-05-09T11:52:32.961Z,1014.82
2023-05-09T11:53:32.964Z,1014.91
2023-05-09T11:54:33.007Z,1014.76
2023-05-09T11:55:33.042Z,1014.75
2023-05-09T11:56:33.077Z,1014.76
2023-05-09T11:57:33.128Z,1014.77
2023-05-09T11:58:33.155Z,1014.65
2023-05-09T11:59:33.295Z,1014.78
2023-05-09T12:00:33.256Z,1014.84
2023-05-09T12:01:33.258Z,1014.75
2023-05-09T12:02:33.422Z,1014.74
2023-05-09T12:03:33.408Z,1014.70
2023-05-09T12:04:33.413Z,1014.69
2023-05-09T12:05:33.391Z,1014.79
2023-05-09T12:06:33.441Z,1014.62
2023-05-09T12:07:33.484Z,1014.54
2023-05-09T12:08:33.528Z,1014.49
2023-05-09T12:09:33.541Z,1014.52
2023-05-09T12:10:33.590Z,1014.50
2023-05-09T12:11:33.666Z,1014.27
2023-05-09T12:12:33.665Z,1014.48